Time;durP1;ratioP1;P1;durP2;ratioP2;P2;SDS_P1;SDS_P2;PMS_P1;PMS_P2;Temp;Humidity;BMP_temperature;BMP_pressure;BME280_temperature;BME280_humidity;BME280_pressure;Samples;Min_cycle;Max_cycle;Signal;HPM_P1;HPM_P2
2022/07/30 00:00:56;;;;;;;1.33;0.85;;;;;;;18.06;100.00;98253.72;15278379;19;20011;-61
2022/07/30 00:06:02;;;;;;;1.15;0.80;;;;;;;17.93;100.00;98257.28;15268363;19;20026;-58
2022/07/30 00:11:08;;;;;;;1.85;0.70;;;;;;;17.85;100.00;98261.06;15275283;19;20006;-53
2022/07/30 00:16:16;;;;;;;1.88;0.90;;;;;;;17.90;100.00;98262.34;15267472;19;20023;-58
2022/07/30 00:21:21;;;;;;;1.20;0.90;;;;;;;17.84;100.00;98264.84;15274360;19;20030;-55
2022/07/30 00:26:40;;;;;;;1.33;0.95;;;;;;;17.87;100.00;98272.59;15266150;19;20053;-58
2022/07/30 00:31:47;;;;;;;1.85;0.90;;;;;;;17.86;100.00;98264.66;15276745;19;20027;-59
2022/07/30 00:36:52;;;;;;;2.03;0.90;;;;;;;17.82;100.00;98266.13;15274224;19;20010;-59
2022/07/30 00:41:59;;;;;;;2.17;1.00;;;;;;;17.79;100.00;98278.28;15289658;19;20006;-55
2022/07/30 00:47:07;;;;;;;1.00;0.90;;;;;;;17.72;100.00;98282.88;15279973;19;20035;-57
2022/07/30 00:52:13;;;;;;;1.58;1.00;;;;;;;17.67;100.00;98278.06;15289130;19;20031;-57
2022/07/30 00:57:18;;;;;;;2.47;1.10;;;;;;;17.65;100.00;98268.44;15284793;19;20344;-58
2022/07/30 01:02:26;;;;;;;1.90;1.05;;;;;;;17.68;100.00;98279.75;15286521;19;20011;-56
2022/07/30 01:07:31;;;;;;;1.48;1.00;;;;;;;17.72;100.00;98269.25;15289106;19;20011;-57
2022/07/30 01:12:37;;;;;;;1.00;0.93;;;;;;;17.73;100.00;98273.66;15281746;19;20380;-57
2022/07/30 01:17:46;;;;;;;1.65;1.10;;;;;;;17.76;100.00;98277.88;15282613;19;20046;-60
2022/07/30 01:23:03;;;;;;;1.40;0.93;;;;;;;17.77;100.00;98282.25;15280399;19;20024;-62
2022/07/30 01:28:16;;;;;;;1.85;1.10;;;;;;;17.76;100.00;98292.31;15280057;19;20030;-56
2022/07/30 01:33:24;;;;;;;1.90;1.20;;;;;;;17.72;100.00;98304.69;15281627;19;20539;-61
2022/07/30 01:38:32;;;;;;;2.33;1.20;;;;;;;17.68;100.00;98312.44;15285010;19;20051;-60
2022/07/30 01:43:43;;;;;;;2.70;1.20;;;;;;;17.65;100.00;98317.47;15281549;19;20014;-56
2022/07/30 01:48:49;;;;;;;1.95;1.25;;;;;;;17.52;100.00;98324.59;15281387;19;20018;-58
2022/07/30 01:53:55;;;;;;;2.17;1.30;;;;;;;17.53;100.00;98328.16;15275189;19;20043;-58
2022/07/30 01:59:06;;;;;;;2.05;1.30;;;;;;;17.52;100.00;98329.22;15278169;19;20360;-63
2022/07/30 02:04:12;;;;;;;1.42;1.13;;;;;;;17.48;100.00;98349.75;15279614;19;20022;-60
2022/07/30 02:09:20;;;;;;;1.38;1.23;;;;;;;17.44;100.00;98348.47;15284416;19;20338;-59
2022/07/30 02:14:32;;;;;;;3.95;1.10;;;;;;;17.43;100.00;98353.09;15281662;19;20021;-58
2022/07/30 02:19:42;;;;;;;1.33;1.23;;;;;;;17.35;100.00;98356.00;15280632;19;20011;-54
2022/07/30 02:24:52;;;;;;;1.77;1.40;;;;;;;17.26;100.00;98355.38;15277392;19;20020;-56
2022/07/30 02:30:02;;;;;;;1.38;1.20;;;;;;;17.20;100.00;98365.19;15281168;19;20472;-58
2022/07/30 02:35:12;;;;;;;4.50;1.52;;;;;;;17.13;100.00;98363.50;15271728;19;20357;-53
2022/07/30 02:40:19;;;;;;;1.30;1.20;;;;;;;17.07;100.00;98360.53;15280976;19;20011;-56
2022/07/30 02:45:29;;;;;;;2.58;1.60;;;;;;;17.04;100.00;98366.41;15277012;19;20023;-55
2022/07/30 02:50:35;;;;;;;3.13;1.67;;;;;;;17.00;100.00;98361.56;15280380;19;20010;-55
2022/07/30 02:55:44;;;;;;;1.65;1.48;;;;;;;16.91;100.00;98364.44;15273578;19;20025;-57
2022/07/30 03:00:53;;;;;;;1.92;1.73;;;;;;;16.89;100.00;98362.97;15277448;19;20017;-60
2022/07/30 03:06:01;;;;;;;1.83;1.73;;;;;;;16.84;100.00;98365.44;15267261;19;20014;-59
2022/07/30 03:11:07;;;;;;;2.47;1.83;;;;;;;16.78;100.00;98358.94;15280181;19;20027;-57
2022/07/30 03:16:17;;;;;;;2.70;2.10;;;;;;;16.74;100.00;98368.56;15272894;19;20015;-57
2022/07/30 03:21:27;;;;;;;3.00;2.20;;;;;;;16.65;100.00;98378.78;15276909;19;20010;-57
2022/07/30 03:26:33;;;;;;;2.88;2.10;;;;;;;16.61;100.00;98378.34;15271072;19;20021;-57
2022/07/30 03:31:42;;;;;;;4.88;2.33;;;;;;;16.56;100.00;98391.69;15275318;19;20043;-58
2022/07/30 03:36:48;;;;;;;3.03;2.37;;;;;;;16.47;100.00;98382.03;15245489;19;20010;-57
2022/07/30 03:41:56;;;;;;;3.13;2.50;;;;;;;16.43;100.00;98395.19;15276946;19;20010;-60
2022/07/30 03:47:06;;;;;;;3.10;2.67;;;;;;;16.36;100.00;98404.34;15268577;19;20018;-57
2022/07/30 03:52:19;;;;;;;3.97;2.80;;;;;;;16.36;100.00;98407.06;15276512;19;20319;-59
2022/07/30 03:57:24;;;;;;;4.82;3.20;;;;;;;16.25;100.00;98405.72;15276638;19;20038;-61
2022/07/30 04:02:32;;;;;;;4.85;3.60;;;;;;;16.17;100.00;98413.00;15272178;19;20017;-61
2022/07/30 04:08:02;;;;;;;4.63;4.10;;;;;;;16.06;100.00;98415.41;15272301;19;20472;-63
2022/07/30 04:13:09;;;;;;;5.20;4.18;;;;;;;15.95;100.00;98423.06;15284420;19;20010;-63
2022/07/30 04:18:20;;;;;;;6.55;4.75;;;;;;;15.93;100.00;98440.59;15291140;19;20010;-63
2022/07/30 04:23:25;;;;;;;6.50;5.30;;;;;;;15.93;100.00;98440.59;15289602;19;20387;-63
2022/07/30 04:28:31;;;;;;;6.13;5.22;;;;;;;15.90;100.00;98435.53;15290777;19;20014;-64
2022/07/30 04:33:39;;;;;;;6.60;5.43;;;;;;;15.85;100.00;98445.13;15279584;19;20471;-64
2022/07/30 04:38:54;;;;;;;6.85;5.45;;;;;;;15.77;100.00;98441.69;15288633;19;20106;-64
2022/07/30 04:43:59;;;;;;;6.45;5.30;;;;;;;15.72;100.00;98450.41;15280934;19;20011;-63
2022/07/30 04:49:08;;;;;;;7.53;5.85;;;;;;;15.68;100.00;98449.97;15286218;19;20035;-63
2022/07/30 04:54:16;;;;;;;5.30;4.78;;;;;;;15.66;100.00;98449.31;15284446;19;20030;-63
2022/07/30 04:59:25;;;;;;;15.10;5.60;;;;;;;15.63;100.00;98449.69;15284744;19;20015;-63
2022/07/30 05:04:34;;;;;;;6.07;4.72;;;;;;;15.58;100.00;98454.88;15277867;19;20014;-63
2022/07/30 05:09:40;;;;;;;6.13;4.95;;;;;;;15.55;100.00;98468.81;15283191;19;20569;-63
2022/07/30 05:14:47;;;;;;;5.05;4.30;;;;;;;15.56;100.00;98462.38;15274917;19;20081;-66
2022/07/30 05:19:56;;;;;;;7.63;4.90;;;;;;;15.58;100.00;98460.31;15282443;19;20015;-65
2022/07/30 05:25:04;;;;;;;4.70;4.07;;;;;;;15.59;100.00;98445.66;15276854;19;20018;-65
2022/07/30 05:30:20;;;;;;;5.68;4.20;;;;;;;15.59;100.00;98448.38;15283470;19;20035;-66
2022/07/30 05:35:36;;;;;;;4.50;4.00;;;;;;;15.59;100.00;98437.53;15281026;19;20018;-65
2022/07/30 05:40:41;;;;;;;5.93;4.25;;;;;;;15.64;100.00;98432.34;15276999;19;20504;-67
2022/07/30 05:46:05;;;;;;;7.82;6.50;;;;;;;15.65;100.00;98415.03;15277426;19;20014;-79
2022/07/30 05:51:13;;;;;;;5.68;4.63;;;;;;;15.62;100.00;98411.88;15308019;19;20054;-80
2022/07/30 05:56:18;;;;;;;6.72;5.60;;;;;;;15.62;100.00;98418.13;15299240;19;20017;-77
2022/07/30 06:01:46;;;;;;;7.28;5.07;;;;;;;15.59;100.00;98423.94;15306280;19;20010;-78
2022/07/30 06:07:06;;;;;;;6.35;5.07;;;;;;;15.54;100.00;98427.25;15324381;19;20010;-79
2022/07/30 06:12:11;;;;;;;7.25;5.35;;;;;;;15.49;100.00;98437.00;15347835;19;20063;-79
2022/07/30 06:17:17;;;;;;;11.45;6.28;;;;;;;15.50;100.00;98438.69;15275618;19;20017;-77
2022/07/30 06:22:40;;;;;;;8.68;7.20;;;;;;;15.51;100.00;98465.66;15287245;19;20002;-78
2022/07/30 06:27:53;;;;;;;8.90;7.18;;;;;;;15.55;100.00;98485.94;15293714;19;20035;-65
2022/07/30 06:32:58;;;;;;;10.02;8.27;;;;;;;15.59;100.00;98494.53;15279640;19;20018;-64
2022/07/30 06:38:06;;;;;;;10.32;7.97;;;;;;;15.59;100.00;98499.16;15275715;19;20029;-64
2022/07/30 06:43:25;;;;;;;8.43;7.35;;;;;;;15.55;100.00;98504.13;15273312;19;20482;-64
2022/07/30 06:48:56;;;;;;;8.43;6.70;;;;;;;15.61;100.00;98500.63;15276621;19;20018;-65
2022/07/30 06:54:04;;;;;;;6.47;5.43;;;;;;;15.65;100.00;98498.38;15272360;19;20010;-65
2022/07/30 06:59:12;;;;;;;7.88;6.05;;;;;;;15.69;100.00;98511.41;15277093;19;20046;-65
2022/07/30 07:04:26;;;;;;;4.07;3.30;;;;;;;15.71;100.00;98508.47;15281464;19;20018;-65
2022/07/30 07:09:35;;;;;;;6.28;3.58;;;;;;;15.72;100.00;98504.72;15273281;19;20499;-64
2022/07/30 07:15:08;;;;;;;5.38;4.22;;;;;;;15.77;100.00;98499.53;15272470;19;20479;-64
2022/07/30 07:20:15;;;;;;;6.40;3.13;;;;;;;15.77;100.00;98488.69;15272363;19;20072;-63
2022/07/30 07:25:30;;;;;;;5.72;4.00;;;;;;;15.83;100.00;98495.22;15269881;19;20006;-63
2022/07/30 07:30:36;;;;;;;6.38;4.60;;;;;;;15.92;100.00;98493.25;15273011;19;20031;-63
2022/07/30 07:35:43;;;;;;;5.10;4.10;;;;;;;16.01;100.00;98503.81;15274429;19;20401;-65
2022/07/30 07:41:04;;;;;;;6.65;3.80;;;;;;;16.18;100.00;98498.06;15275819;19;20081;-64
2022/07/30 07:46:15;;;;;;;3.95;3.05;;;;;;;16.35;100.00;98497.81;15267076;19;20031;-65
2022/07/30 07:51:38;;;;;;;4.18;3.30;;;;;;;16.58;100.00;98500.31;15274395;19;20021;-66
2022/07/30 07:56:57;;;;;;;4.05;2.40;;;;;;;16.73;100.00;98489.31;15261475;19;20105;-64
2022/07/30 08:02:15;;;;;;;3.80;2.63;;;;;;;16.85;100.00;98493.16;15274332;19;20015;-63
2022/07/30 08:07:35;;;;;;;5.32;2.72;;;;;;;17.03;100.00;98489.06;15271537;19;20434;-64
2022/07/30 08:12:52;;;;;;;4.72;2.55;;;;;;;17.02;100.00;98492.84;15276476;19;20020;-69
2022/07/30 08:18:29;;;;;;;3.40;2.80;;;;;;;17.06;100.00;98497.66;15265116;19;20017;-65
2022/07/30 08:23:47;;;;;;;4.60;2.40;;;;;;;17.13;100.00;98486.81;15271954;19;20018;-67
2022/07/30 08:28:57;;;;;;;2.22;1.80;;;;;;;17.21;100.00;98475.78;15262335;19;20468;-66
2022/07/30 08:34:02;;;;;;;2.15;1.80;;;;;;;17.32;100.00;98484.41;15272109;19;20078;-65
2022/07/30 08:39:08;;;;;;;3.53;1.73;;;;;;;17.38;100.00;98475.41;15268655;19;20015;-63
2022/07/30 08:44:24;;;;;;;3.22;1.90;;;;;;;17.44;100.00;98481.91;15263021;19;20042;-64
2022/07/30 08:49:39;;;;;;;4.40;1.80;;;;;;;17.51;100.00;98480.06;15267162;19;20018;-62
2022/07/30 08:54:46;;;;;;;3.83;1.65;;;;;;;17.55;100.00;98487.63;15269589;19;20014;-63
2022/07/30 08:59:54;;;;;;;2.92;1.60;;;;;;;17.58;100.00;98491.81;15268960;19;20018;-63
2022/07/30 09:05:06;;;;;;;4.60;1.73;;;;;;;17.63;100.00;98489.31;15284230;19;20014;-63
2022/07/30 09:10:13;;;;;;;4.93;1.88;;;;;;;17.67;100.00;98496.03;15276876;19;20373;-61
2022/07/30 09:15:24;;;;;;;4.10;1.70;;;;;;;17.68;100.00;98494.16;15280115;19;20018;-62
2022/07/30 09:20:32;;;;;;;3.30;1.80;;;;;;;17.73;100.00;98499.81;15281228;19;20021;-62
2022/07/30 09:25:42;;;;;;;;;;;;;;;17.74;100.00;98498.78;15275992;19;20373;-62
2022/07/30 09:31:11;;;;;;;3.28;1.60;;;;;;;17.92;100.00;98508.25;15277261;19;19915;-62
2022/07/30 09:36:39;;;;;;;2.07;1.70;;;;;;;18.00;100.00;98510.81;15280500;19;20354;-62
2022/07/30 09:42:04;;;;;;;2.78;1.70;;;;;;;17.96;100.00;98498.59;15286705;19;20389;-62
2022/07/30 09:47:31;;;;;;;2.80;1.60;;;;;;;18.02;100.00;98517.72;15281169;19;20011;-61
2022/07/30 09:52:37;;;;;;;3.47;1.70;;;;;;;18.07;100.00;98511.66;15286734;19;20038;-61
2022/07/30 09:57:58;;;;;;;2.20;1.40;;;;;;;18.15;100.00;98519.66;15274218;19;20027;-61
2022/07/30 10:03:21;;;;;;;2.85;1.65;;;;;;;18.20;100.00;98515.44;15277139;19;20018;-60
2022/07/30 10:09:03;;;;;;;2.28;1.60;;;;;;;18.12;100.00;98511.03;15281669;19;20019;-61
2022/07/30 10:14:27;;;;;;;2.63;1.70;;;;;;;18.11;100.00;98517.53;15282037;19;20460;-60
2022/07/30 10:19:40;;;;;;;1.70;1.50;;;;;;;18.10;100.00;98518.59;15279489;19;20019;-63
2022/07/30 10:25:04;;;;;;;2.60;1.60;;;;;;;18.18;100.00;98521.09;15285345;19;20474;-61
2022/07/30 10:30:32;;;;;;;3.80;1.50;;;;;;;18.08;100.00;98524.22;15278615;19;20022;-63
2022/07/30 10:35:40;;;;;;;3.17;1.83;;;;;;;18.09;100.00;98525.91;15279630;19;20355;-63
2022/07/30 10:40:51;;;;;;;1.67;1.48;;;;;;;18.24;100.00;98527.63;15283628;19;20006;-62
2022/07/30 10:46:11;;;;;;;4.18;1.67;;;;;;;18.34;100.00;98528.03;15279564;19;20054;-62
2022/07/30 10:51:47;;;;;;;2.95;1.60;;;;;;;18.43;100.00;98520.50;15283696;19;20604;-62
2022/07/30 10:57:06;;;;;;;2.58;1.50;;;;;;;18.38;100.00;98529.31;15281939;19;20508;-62
2022/07/30 11:02:11;;;;;;;2.13;1.50;;;;;;;18.41;100.00;98539.78;15277512;19;20432;-64
2022/07/30 11:07:32;;;;;;;4.13;1.50;;;;;;;18.46;100.00;98537.28;15268141;19;20010;-64
2022/07/30 11:12:56;;;;;;;3.75;1.65;;;;;;;18.26;100.00;98539.97;15276467;19;20006;-64
2022/07/30 11:18:10;;;;;;;3.20;1.75;;;;;;;18.21;100.00;98550.69;15275402;19;20022;-63
2022/07/30 11:23:41;;;;;;;4.15;1.60;;;;;;;17.99;100.00;98541.84;15274438;19;20021;-63
2022/07/30 11:28:47;;;;;;;2.38;1.50;;;;;;;17.99;100.00;98552.75;15273079;19;20047;-63
2022/07/30 11:33:53;;;;;;;2.88;1.60;;;;;;;17.99;100.00;98541.84;15273045;19;20010;-68
2022/07/30 11:39:03;;;;;;;2.25;1.50;;;;;;;17.91;100.00;98544.72;15274097;19;20010;-66
2022/07/30 11:44:30;;;;;;;2.60;1.80;;;;;;;17.96;100.00;98547.66;15270448;19;20011;-64
2022/07/30 11:49:37;;;;;;;4.68;1.60;;;;;;;17.92;100.00;98551.88;15278920;19;20018;-77
2022/07/30 11:54:56;;;;;;;3.40;1.67;;;;;;;17.89;100.00;98552.28;15289701;19;20031;-77
2022/07/30 12:00:02;;;;;;;3.72;1.60;;;;;;;17.93;100.00;98550.81;15286313;19;20015;-77
2022/07/30 12:05:08;;;;;;;2.67;1.50;;;;;;;17.99;100.00;98548.13;15285209;19;20011;-77
2022/07/30 12:10:18;;;;;;;2.45;1.40;;;;;;;17.89;100.00;98542.19;15286715;19;20026;-77
2022/07/30 12:15:33;;;;;;;2.50;1.30;;;;;;;17.93;100.00;98548.09;15281039;19;20428;-77
2022/07/30 12:20:38;;;;;;;2.78;1.40;;;;;;;17.93;100.00;98540.75;15279981;19;20015;-76
2022/07/30 12:25:46;;;;;;;2.55;1.65;;;;;;;18.04;100.00;98550.25;15288832;19;20022;-78
2022/07/30 12:30:56;;;;;;;2.35;1.60;;;;;;;18.07;100.00;98558.00;15288738;19;20121;-77
2022/07/30 12:36:02;;;;;;;2.47;1.65;;;;;;;18.07;100.00;98560.72;15300788;19;20054;-77
2022/07/30 12:41:10;;;;;;;3.25;1.70;;;;;;;18.03;100.00;98554.03;15303202;19;20469;-78
2022/07/30 12:46:18;;;;;;;3.03;1.50;;;;;;;18.09;100.00;98547.72;15296296;19;20014;-76
2022/07/30 12:51:25;;;;;;;2.25;1.50;;;;;;;18.17;100.00;98561.16;15296947;19;20015;-77
2022/07/30 12:56:33;;;;;;;3.10;1.42;;;;;;;18.20;100.00;98561.78;15301546;19;20018;-77
2022/07/30 13:01:41;;;;;;;2.25;1.40;;;;;;;18.22;100.00;98555.09;15302292;19;20014;-77
2022/07/30 13:07:05;;;;;;;1.85;1.30;;;;;;;18.34;100.00;98544.41;15297769;19;20632;-77
2022/07/30 13:12:16;;;;;;;2.15;1.30;;;;;;;18.44;100.00;98544.81;15294112;19;20007;-76
2022/07/30 13:17:21;;;;;;;2.38;1.40;;;;;;;18.53;100.00;98544.59;15285947;19;20018;-76
2022/07/30 13:22:26;;;;;;;1.88;1.33;;;;;;;18.51;100.00;98538.53;15292875;19;20468;-76
2022/07/30 13:27:34;;;;;;;1.65;1.30;;;;;;;18.61;100.00;98541.69;15291121;19;20030;-77
2022/07/30 13:32:39;;;;;;;4.22;1.38;;;;;;;18.59;100.00;98547.34;15295857;19;20030;-77
2022/07/30 13:37:44;;;;;;;2.40;1.50;;;;;;;18.67;100.00;98546.28;15295088;19;20130;-78
2022/07/30 13:42:52;;;;;;;1.83;1.40;;;;;;;18.68;100.00;98553.44;15301482;19;20022;-77
2022/07/30 13:47:58;;;;;;;2.60;1.50;;;;;;;18.72;100.00;98546.50;15304585;19;21278;-77
2022/07/30 13:53:03;;;;;;;3.42;1.40;;;;;;;18.72;100.00;98543.78;15307726;19;20022;-78
2022/07/30 13:58:11;;;;;;;1.65;1.27;;;;;;;18.79;100.00;98547.31;15312956;19;20006;-78
2022/07/30 14:03:17;;;;;;;2.15;1.40;;;;;;;18.83;100.00;98545.00;15314157;19;20371;-77
2022/07/30 14:08:21;;;;;;;3.05;1.60;;;;;;;18.82;100.00;98556.16;15310475;19;20014;-77
2022/07/30 14:13:30;;;;;;;2.65;1.52;;;;;;;18.84;100.00;98554.06;15313751;19;20071;-77
2022/07/30 14:18:35;;;;;;;2.63;1.40;;;;;;;18.86;100.00;98541.03;15306405;19;20013;-76
2022/07/30 14:23:41;;;;;;;2.45;1.50;;;;;;;18.89;100.00;98540.59;15295661;19;20017;-76
2022/07/30 14:28:49;;;;;;;3.35;1.40;;;;;;;18.92;100.00;98534.72;15296691;19;20021;-76
2022/07/30 14:34:02;;;;;;;2.30;1.50;;;;;;;18.88;100.00;98530.72;15304770;19;20016;-78
2022/07/30 14:39:08;;;;;;;3.70;1.30;;;;;;;19.01;100.00;98528.00;15335505;19;20109;-77
2022/07/30 14:44:17;;;;;;;1.70;1.35;;;;;;;19.02;100.00;98534.31;15305576;19;20002;-76
2022/07/30 14:49:22;;;;;;;2.05;1.40;;;;;;;19.03;100.00;98536.81;15277844;19;20017;-76
2022/07/30 14:54:32;;;;;;;1.95;1.10;;;;;;;18.96;100.00;98526.97;15278202;19;20380;-75
2022/07/30 14:59:40;;;;;;;1.65;1.10;;;;;;;18.98;100.00;98535.78;15277384;19;20323;-76
2022/07/30 15:04:45;;;;;;;1.85;1.30;;;;;;;18.92;100.00;98531.97;15282410;19;20014;-75
2022/07/30 15:09:50;;;;;;;1.38;1.00;;;;;;;18.92;100.00;98534.72;15281153;19;20046;-76
2022/07/30 15:14:58;;;;;;;1.25;1.08;;;;;;;18.94;100.00;98540.84;15281839;19;20379;-75
2022/07/30 15:20:06;;;;;;;1.70;1.13;;;;;;;18.91;100.00;98533.03;15275227;19;20014;-76
2022/07/30 15:25:11;;;;;;;1.40;1.13;;;;;;;18.94;100.00;98532.66;15276910;19;21189;-76
2022/07/30 15:30:19;;;;;;;1.85;1.10;;;;;;;18.89;100.00;98530.53;15278986;19;20358;-77
2022/07/30 15:35:24;;;;;;;2.65;1.13;;;;;;;18.88;100.00;98536.19;15280818;19;20019;-76
2022/07/30 15:40:30;;;;;;;2.20;1.10;;;;;;;18.81;100.00;98538.94;15278806;19;20010;-76
2022/07/30 15:45:37;;;;;;;2.35;1.30;;;;;;;18.81;100.00;98540.81;15276805;19;20485;-75
2022/07/30 15:51:03;;;;;;;2.13;1.40;;;;;;;18.75;100.00;98547.97;15270603;19;20331;-76
2022/07/30 15:56:08;;;;;;;3.00;1.20;;;;;;;18.74;100.00;98547.13;15274746;19;20026;-75
2022/07/30 16:01:17;;;;;;;1.45;1.00;;;;;;;18.73;100.00;98542.72;15273685;19;20014;-76
2022/07/30 16:06:22;;;;;;;1.42;1.20;;;;;;;18.72;100.00;98549.25;15278336;19;20017;-75
2022/07/30 16:11:28;;;;;;;1.95;1.13;;;;;;;18.71;100.00;98550.28;15308705;19;20326;-75
2022/07/30 16:16:38;;;;;;;2.42;1.30;;;;;;;18.69;100.00;98543.38;15306866;19;20022;-75
2022/07/30 16:21:43;;;;;;;4.57;1.30;;;;;;;18.70;100.00;98548.59;15305226;19;20019;-75
2022/07/30 16:26:49;;;;;;;2.10;1.20;;;;;;;18.68;100.00;98542.50;15307419;19;20365;-76
2022/07/30 16:31:56;;;;;;;2.03;1.20;;;;;;;18.70;100.00;98551.31;15302337;19;20003;-74
2022/07/30 16:37:02;;;;;;;2.15;1.20;;;;;;;18.66;100.00;98552.78;15306310;19;20049;-74
2022/07/30 16:42:08;;;;;;;1.65;1.10;;;;;;;18.66;100.00;98550.06;15305242;19;20015;-76
2022/07/30 16:47:16;;;;;;;1.58;1.13;;;;;;;18.68;100.00;98550.69;15300562;19;20026;-75
2022/07/30 16:52:22;;;;;;;2.13;1.25;;;;;;;18.71;100.00;98555.75;15310571;19;20717;-76
2022/07/30 16:57:31;;;;;;;1.27;1.08;;;;;;;18.76;100.00;98550.47;15298920;19;20471;-76
2022/07/30 17:02:38;;;;;;;2.20;1.20;;;;;;;18.84;100.00;98552.16;15305205;19;20030;-77
2022/07/30 17:07:43;;;;;;;1.77;1.10;;;;;;;18.84;100.00;98549.41;15311459;19;20025;-76
2022/07/30 17:12:48;;;;;;;1.75;1.30;;;;;;;18.86;100.00;98538.31;15310228;19;20014;-76
2022/07/30 17:17:57;;;;;;;1.67;1.10;;;;;;;18.88;100.00;98541.63;15320399;19;20042;-75
2022/07/30 17:23:02;;;;;;;1.88;1.08;;;;;;;18.89;100.00;98544.19;15340521;19;20287;-76
2022/07/30 17:28:08;;;;;;;2.55;1.10;;;;;;;18.86;100.00;98547.31;15288335;19;20010;-74
2022/07/30 17:33:15;;;;;;;2.17;0.98;;;;;;;18.86;100.00;98543.75;15291057;19;20649;-75
2022/07/30 17:38:20;;;;;;;3.38;1.20;;;;;;;18.86;100.00;98539.13;15280406;19;20017;-75
2022/07/30 17:43:25;;;;;;;1.90;1.08;;;;;;;18.86;100.00;98547.31;15291720;19;20407;-76
2022/07/30 17:48:33;;;;;;;2.17;1.10;;;;;;;18.83;100.00;98546.91;15283263;19;20020;-75
2022/07/30 17:53:38;;;;;;;1.38;1.10;;;;;;;18.75;100.00;98550.69;15291176;19;20003;-76
2022/07/30 17:58:43;;;;;;;3.33;1.20;;;;;;;18.71;100.00;98555.75;15287706;19;20010;-77
2022/07/30 18:03:57;;;;;;;1.40;1.10;;;;;;;18.68;100.00;98556.16;15298756;19;20007;-76
2022/07/30 18:09:02;;;;;;;2.08;1.35;;;;;;;18.65;100.00;98562.03;15289225;19;20022;-76
2022/07/30 18:14:07;;;;;;;1.58;1.30;;;;;;;18.63;100.00;98555.97;15305550;19;20017;-76
2022/07/30 18:19:15;;;;;;;4.05;1.40;;;;;;;18.61;100.00;98558.88;15301217;19;20386;-77
2022/07/30 18:24:31;;;;;;;1.50;1.15;;;;;;;18.58;100.00;98563.94;15296680;19;20010;-76
2022/07/30 18:29:36;;;;;;;2.53;1.30;;;;;;;18.52;100.00;98565.59;15297779;19;20021;-77
2022/07/30 18:34:49;;;;;;;1.88;1.10;;;;;;;18.45;100.00;98573.78;15335156;19;20018;-76
2022/07/30 18:39:54;;;;;;;2.78;1.20;;;;;;;18.42;100.00;98568.75;15321679;19;20026;-77
2022/07/30 18:44:59;;;;;;;1.38;1.00;;;;;;;18.38;100.00;98574.81;15283184;19;20018;-76
2022/07/30 18:50:10;;;;;;;1.83;1.17;;;;;;;18.39;100.00;98577.38;15281456;19;20021;-75
2022/07/30 18:55:17;;;;;;;1.53;1.03;;;;;;;18.38;100.00;98570.22;15283737;19;20014;-76
2022/07/30 19:00:23;;;;;;;1.42;1.20;;;;;;;18.37;100.00;98579.44;15281701;19;20279;-76
2022/07/30 19:05:42;;;;;;;1.45;1.20;;;;;;;18.36;100.00;98571.47;15279524;19;20010;-76
2022/07/30 19:10:47;;;;;;;2.15;1.27;;;;;;;18.30;100.00;98581.31;15273741;19;20010;-76
2022/07/30 19:15:53;;;;;;;1.63;1.10;;;;;;;18.25;100.00;98581.94;15284810;19;20011;-76
2022/07/30 19:21:01;;;;;;;3.20;1.75;;;;;;;18.18;100.00;98589.28;15282074;19;20006;-76
2022/07/30 19:26:07;;;;;;;4.13;3.00;;;;;;;18.09;100.00;98579.63;15289859;19;20403;-76
2022/07/30 19:31:12;;;;;;;2.97;1.70;;;;;;;17.98;100.00;98589.22;15284374;19;20034;-77
2022/07/30 19:36:20;;;;;;;2.42;1.52;;;;;;;17.87;100.00;98586.00;15286130;19;20015;-76
2022/07/30 19:41:26;;;;;;;1.63;1.40;;;;;;;17.83;100.00;98589.34;15281292;19;20015;-75
2022/07/30 19:46:32;;;;;;;1.85;1.58;;;;;;;17.79;100.00;98593.53;15283032;19;20013;-76
2022/07/30 19:51:40;;;;;;;2.50;1.50;;;;;;;17.71;100.00;98589.09;15283314;19;20937;-75
2022/07/30 19:57:05;;;;;;;5.47;1.70;;;;;;;17.63;100.00;98603.75;15276669;19;20017;-77
2022/07/30 20:02:18;;;;;;;1.92;1.52;;;;;;;17.57;100.00;98604.53;15271891;19;20441;-75
2022/07/30 20:07:29;;;;;;;2.17;1.40;;;;;;;17.48;100.00;98605.75;15277325;19;20014;-76
2022/07/30 20:12:36;;;;;;;2.88;2.05;;;;;;;17.40;100.00;98617.66;15281674;19;20770;-76
2022/07/30 20:17:45;;;;;;;3.35;2.13;;;;;;;17.31;100.00;98616.16;15274971;19;20007;-76
2022/07/30 20:22:53;;;;;;;4.57;2.42;;;;;;;17.27;100.00;98625.75;15283921;19;20031;-75
2022/07/30 20:27:59;;;;;;;2.65;1.85;;;;;;;17.17;100.00;98629.66;15280122;19;20010;-76
2022/07/30 20:33:04;;;;;;;3.05;1.92;;;;;;;17.07;100.00;98626.47;15277692;19;20010;-76
2022/07/30 20:38:13;;;;;;;3.00;2.25;;;;;;;16.99;100.00;98632.06;15276743;19;20384;-76
2022/07/30 20:43:18;;;;;;;3.85;2.28;;;;;;;16.91;100.00;98641.19;15272537;19;20640;-76
2022/07/30 20:48:27;;;;;;;4.68;2.00;;;;;;;16.85;100.00;98644.66;15267788;19;20016;-77
2022/07/30 20:53:35;;;;;;;3.90;2.05;;;;;;;16.80;100.00;98639.81;15285495;19;20020;-76
2022/07/30 20:58:40;;;;;;;2.95;2.10;;;;;;;16.73;100.00;98637.03;15290049;19;20007;-75
2022/07/30 21:03:49;;;;;;;3.67;1.95;;;;;;;16.69;100.00;98640.34;15295773;19;20010;-76
2022/07/30 21:08:58;;;;;;;2.75;2.10;;;;;;;16.64;100.00;98639.03;15287893;19;20027;-76
2022/07/30 21:14:04;;;;;;;3.88;2.28;;;;;;;16.57;100.00;98627.28;15286544;19;20002;-77
2022/07/30 21:19:15;;;;;;;4.25;2.70;;;;;;;16.49;100.00;98630.13;15292231;19;20014;-76
2022/07/30 21:24:24;;;;;;;5.32;2.60;;;;;;;16.39;100.00;98635.88;15274283;19;20070;-77
2022/07/30 21:29:30;;;;;;;3.05;2.45;;;;;;;16.32;100.00;98633.09;15291547;19;20018;-75
2022/07/30 21:34:35;;;;;;;5.03;2.67;;;;;;;16.27;100.00;98630.13;15298402;19;20574;-76
2022/07/30 21:39:48;;;;;;;3.17;2.30;;;;;;;16.23;100.00;98626.09;15285366;19;20007;-74
2022/07/30 21:44:53;;;;;;;3.28;2.40;;;;;;;16.16;100.00;98627.94;15287237;19;20007;-76
2022/07/30 21:49:59;;;;;;;3.92;2.25;;;;;;;16.13;100.00;98631.84;15285679;19;20042;-76
2022/07/30 21:55:08;;;;;;;3.60;2.70;;;;;;;16.08;100.00;98628.03;15286890;19;20007;-76
2022/07/30 22:00:21;;;;;;;2.65;2.25;;;;;;;16.02;100.00;98635.06;15290860;19;20014;-76
2022/07/30 22:05:27;;;;;;;3.38;2.80;;;;;;;15.95;100.00;98635.00;15296576;19;20018;-77
2022/07/30 22:10:46;;;;;;;2.70;2.35;;;;;;;15.88;100.00;98644.13;15293772;19;20018;-76
2022/07/30 22:15:54;;;;;;;3.40;2.45;;;;;;;15.81;100.00;98638.56;15297903;19;20086;-78
2022/07/30 22:21:01;;;;;;;2.90;2.60;;;;;;;15.75;100.00;98642.88;15293556;19;20054;-77
2022/07/30 22:26:14;;;;;;;4.85;2.95;;;;;;;15.67;100.00;98635.69;15296247;19;20496;-80
2022/07/30 22:31:30;;;;;;;4.00;2.58;;;;;;;15.59;100.00;98640.38;15344525;19;20003;-78
2022/07/30 22:36:43;;;;;;;4.18;3.47;;;;;;;15.51;100.00;98642.16;15316126;19;20014;-78
2022/07/30 22:41:52;;;;;;;4.75;3.35;;;;;;;15.44;100.00;98652.06;15286398;19;20361;-79
2022/07/30 22:46:57;;;;;;;2.55;2.35;;;;;;;15.36;100.00;98639.41;15287952;19;20010;-80
2022/07/30 22:52:04;;;;;;;2.83;2.58;;;;;;;15.32;100.00;98635.41;15288073;19;20029;-79
2022/07/30 22:57:26;;;;;;;2.90;2.40;;;;;;;15.27;100.00;98632.41;15286806;19;20035;-81
2022/07/30 23:02:35;;;;;;;3.25;2.50;;;;;;;15.24;100.00;98630.06;15301315;19;20360;-78
2022/07/30 23:07:41;;;;;;;4.22;2.78;;;;;;;15.20;100.00;98628.75;15358730;19;20009;-80
2022/07/30 23:12:51;;;;;;;3.42;3.13;;;;;;;15.13;100.00;98631.38;15321101;19;20418;-77
2022/07/30 23:17:56;;;;;;;3.92;3.20;;;;;;;15.06;100.00;98636.69;15286781;19;20018;-76
2022/07/30 23:23:03;;;;;;;5.53;3.35;;;;;;;15.00;100.00;98634.72;15279458;19;20363;-79
2022/07/30 23:28:11;;;;;;;4.25;3.42;;;;;;;14.95;100.00;98639.84;15287681;19;20023;-79
2022/07/30 23:33:18;;;;;;;3.55;2.90;;;;;;;14.89;100.00;98638.72;15287833;19;20010;-78
2022/07/30 23:38:24;;;;;;;2.65;2.45;;;;;;;14.85;100.00;98633.84;15285091;19;20010;-79
2022/07/30 23:43:31;;;;;;;2.42;2.22;;;;;;;14.83;100.00;98635.91;15286828;19;20491;-78